EIN1AW KBOS-EIDW
Flight info
| Callsign | EIN1AW |
|---|---|
| Flight time | N/A |
| Altitude | 39000 |
| Route | LBSTA8 LBSTA DCT ALLEX N431B ELSIR/M081F400 DCT 50N050W 52N040W 54N030W 55N020W DCT RESNO DCT NETKI/N0466F390 DCT REVNU DCT OLAPO OLAPO3R |
| Aircraft | A333/H-SDE3GHIJ2J3J5M1RVWXY/LB2D1 |
Departure
| Time | N/A |
|---|---|
| Airport | Boston Logan International Airport (KBOS) |
Arrival
| Time | 2026-05-03 22:12 |
|---|---|
| Airport | Dublin Airport (EIDW) |
| Time | Latitude | Longitude | Altitude | Speed | Heading |
|---|---|---|---|---|---|
| 2026-05-03 20:15 | 53.92217 | -30.51044 | 40377 ft | 485 kts | 75° |
| 2026-05-03 20:15 | 53.93927 | -30.39978 | 40390 ft | 485 kts | 75° |
| 2026-05-03 20:16 | 53.95627 | -30.28902 | 40378 ft | 485 kts | 75° |
| 2026-05-03 20:16 | 53.97318 | -30.17815 | 40381 ft | 485 kts | 75° |
| 2026-05-03 20:17 | 53.98998 | -30.06722 | 40378 ft | 484 kts | 75° |
| 2026-05-03 20:17 | 54.00653 | -29.95627 | 40379 ft | 484 kts | 75° |
| 2026-05-03 20:18 | 54.02243 | -29.84571 | 40382 ft | 484 kts | 76° |
| 2026-05-03 20:18 | 54.03823 | -29.73431 | 40387 ft | 484 kts | 76° |
| 2026-05-03 20:19 | 54.05398 | -29.62279 | 40374 ft | 484 kts | 76° |
| 2026-05-03 20:19 | 54.06964 | -29.51130 | 40371 ft | 484 kts | 76° |
| 2026-05-03 20:20 | 54.08522 | -29.39969 | 40370 ft | 484 kts | 76° |
| 2026-05-03 20:20 | 54.10070 | -29.28794 | 40367 ft | 484 kts | 76° |
| 2026-05-03 20:21 | 54.11608 | -29.17613 | 40370 ft | 484 kts | 76° |
| 2026-05-03 20:21 | 54.12877 | -29.08319 | 40362 ft | 484 kts | 76° |
| 2026-05-03 20:22 | 54.14394 | -28.97130 | 40366 ft | 484 kts | 76° |
| 2026-05-03 20:22 | 54.15901 | -28.85938 | 40362 ft | 484 kts | 76° |
| 2026-05-03 20:23 | 54.17398 | -28.74726 | 40362 ft | 484 kts | 76° |
| 2026-05-03 20:23 | 54.18883 | -28.63521 | 40363 ft | 484 kts | 76° |
| 2026-05-03 20:24 | 54.20357 | -28.52311 | 40361 ft | 483 kts | 76° |
| 2026-05-03 20:24 | 54.21820 | -28.41103 | 40358 ft | 483 kts | 76° |
| 2026-05-03 20:25 | 54.23272 | -28.29888 | 40357 ft | 483 kts | 76° |
| 2026-05-03 20:25 | 54.24714 | -28.18660 | 40354 ft | 483 kts | 76° |
| 2026-05-03 20:26 | 54.26146 | -28.07424 | 40353 ft | 483 kts | 77° |
| 2026-05-03 20:26 | 54.27566 | -27.96190 | 40351 ft | 483 kts | 77° |
| 2026-05-03 20:27 | 54.28977 | -27.84938 | 40353 ft | 483 kts | 77° |
| 2026-05-03 20:27 | 54.30378 | -27.73678 | 40353 ft | 483 kts | 77° |
| 2026-05-03 20:28 | 54.31768 | -27.62409 | 40347 ft | 483 kts | 77° |
| 2026-05-03 20:28 | 54.33145 | -27.51149 | 40346 ft | 483 kts | 77° |
| 2026-05-03 20:29 | 54.34513 | -27.39877 | 40344 ft | 483 kts | 77° |
| 2026-05-03 20:29 | 54.35863 | -27.28661 | 40343 ft | 483 kts | 77° |
| 2026-05-03 20:30 | 54.37209 | -27.17379 | 40341 ft | 483 kts | 77° |
| 2026-05-03 20:30 | 54.38546 | -27.06079 | 40345 ft | 483 kts | 77° |
| 2026-05-03 20:31 | 54.39870 | -26.94789 | 40342 ft | 483 kts | 77° |
| 2026-05-03 20:31 | 54.41184 | -26.83487 | 40341 ft | 483 kts | 77° |
| 2026-05-03 20:32 | 54.42487 | -26.72185 | 40335 ft | 483 kts | 77° |
| 2026-05-03 20:32 | 54.43780 | -26.60869 | 40336 ft | 483 kts | 77° |
| 2026-05-03 20:33 | 54.45063 | -26.49542 | 40327 ft | 482 kts | 78° |
| 2026-05-03 20:33 | 54.46334 | -26.38224 | 40328 ft | 482 kts | 78° |
| 2026-05-03 20:34 | 54.47592 | -26.26915 | 40325 ft | 482 kts | 78° |
| 2026-05-03 20:34 | 54.48839 | -26.15604 | 40322 ft | 481 kts | 78° |
| 2026-05-03 20:35 | 54.50076 | -26.04289 | 40330 ft | 481 kts | 78° |
| 2026-05-03 20:35 | 54.51294 | -25.93039 | 40314 ft | 481 kts | 78° |
| 2026-05-03 20:36 | 54.52509 | -25.81715 | 40317 ft | 481 kts | 78° |
| 2026-05-03 20:36 | 54.53714 | -25.70376 | 40314 ft | 481 kts | 78° |
| 2026-05-03 20:37 | 54.54908 | -25.59030 | 40314 ft | 481 kts | 78° |
| 2026-05-03 20:37 | 54.56092 | -25.47678 | 40312 ft | 482 kts | 78° |
| 2026-05-03 20:38 | 54.57265 | -25.36317 | 40311 ft | 482 kts | 78° |
| 2026-05-03 20:38 | 54.58429 | -25.24945 | 40307 ft | 482 kts | 78° |
| 2026-05-03 20:39 | 54.59580 | -25.13571 | 40308 ft | 482 kts | 79° |
| 2026-05-03 20:39 | 54.60722 | -25.02192 | 40301 ft | 482 kts | 79° |
| 2026-05-03 20:40 | 54.61853 | -24.90804 | 40301 ft | 481 kts | 79° |
| 2026-05-03 20:40 | 54.62973 | -24.79412 | 40300 ft | 481 kts | 79° |
| 2026-05-03 20:41 | 54.64081 | -24.68019 | 40299 ft | 481 kts | 79° |
| 2026-05-03 20:41 | 54.65180 | -24.56615 | 40296 ft | 482 kts | 79° |
| 2026-05-03 20:42 | 54.66261 | -24.45278 | 40295 ft | 482 kts | 79° |
| 2026-05-03 20:42 | 54.67337 | -24.33872 | 40290 ft | 481 kts | 79° |
| 2026-05-03 20:43 | 54.68401 | -24.22475 | 40292 ft | 480 kts | 79° |
| 2026-05-03 20:43 | 54.69453 | -24.11084 | 40284 ft | 480 kts | 79° |
| 2026-05-03 20:44 | 54.70495 | -23.99679 | 40284 ft | 480 kts | 79° |
| 2026-05-03 20:44 | 54.71526 | -23.88274 | 40295 ft | 480 kts | 79° |
| 2026-05-03 20:45 | 54.72545 | -23.76882 | 40282 ft | 479 kts | 79° |
| 2026-05-03 20:45 | 54.73551 | -23.65504 | 40281 ft | 478 kts | 79° |
| 2026-05-03 20:46 | 54.74547 | -23.54119 | 40277 ft | 478 kts | 80° |
| 2026-05-03 20:46 | 54.75532 | -23.42732 | 40279 ft | 478 kts | 79° |
| 2026-05-03 20:47 | 54.76505 | -23.31345 | 40281 ft | 478 kts | 79° |
| 2026-05-03 20:47 | 54.77467 | -23.19960 | 40276 ft | 478 kts | 80° |
| 2026-05-03 20:48 | 54.78418 | -23.08578 | 40272 ft | 477 kts | 80° |
| 2026-05-03 20:48 | 54.79358 | -22.97196 | 40273 ft | 477 kts | 80° |
| 2026-05-03 20:49 | 54.80289 | -22.85797 | 40270 ft | 477 kts | 80° |
| 2026-05-03 20:49 | 54.81201 | -22.74476 | 40268 ft | 477 kts | 80° |
| 2026-05-03 20:50 | 54.82109 | -22.63080 | 40262 ft | 477 kts | 80° |
| 2026-05-03 20:50 | 54.83007 | -22.51671 | 40268 ft | 477 kts | 80° |
| 2026-05-03 20:51 | 54.83894 | -22.40253 | 40266 ft | 477 kts | 81° |
| 2026-05-03 20:51 | 54.84771 | -22.28830 | 40267 ft | 478 kts | 81° |
| 2026-05-03 20:52 | 54.85636 | -22.17409 | 40261 ft | 477 kts | 81° |
| 2026-05-03 20:52 | 54.86490 | -22.05996 | 40262 ft | 477 kts | 81° |
| 2026-05-03 20:53 | 54.87332 | -21.94592 | 40261 ft | 477 kts | 81° |
| 2026-05-03 20:53 | 54.88164 | -21.83167 | 40260 ft | 477 kts | 81° |
| 2026-05-03 20:54 | 54.88986 | -21.71736 | 40255 ft | 477 kts | 81° |
| 2026-05-03 20:54 | 54.90196 | -21.54611 | 40254 ft | 475 kts | 81° |
| 2026-05-03 20:55 | 54.90988 | -21.43207 | 40251 ft | 475 kts | 81° |
| 2026-05-03 20:55 | 54.91770 | -21.31803 | 40249 ft | 475 kts | 81° |
| 2026-05-03 20:56 | 54.92539 | -21.20400 | 40252 ft | 475 kts | 81° |
| 2026-05-03 20:56 | 54.93299 | -21.08988 | 40250 ft | 475 kts | 81° |
| 2026-05-03 20:57 | 54.94046 | -20.97588 | 40248 ft | 474 kts | 81° |
| 2026-05-03 20:57 | 54.94783 | -20.86192 | 40243 ft | 474 kts | 81° |
| 2026-05-03 20:58 | 54.95509 | -20.74785 | 40245 ft | 474 kts | 82° |
| 2026-05-03 20:58 | 54.96221 | -20.63434 | 40242 ft | 474 kts | 82° |
| 2026-05-03 20:59 | 54.96926 | -20.52021 | 40241 ft | 474 kts | 82° |
| 2026-05-03 20:59 | 54.97619 | -20.40623 | 40234 ft | 474 kts | 82° |
| 2026-05-03 21:00 | 54.98077 | -20.32988 | 40237 ft | 474 kts | 82° |
| 2026-05-03 21:00 | 54.98974 | -20.17794 | 40238 ft | 474 kts | 82° |
| 2026-05-03 21:01 | 54.99636 | -20.06370 | 40232 ft | 474 kts | 82° |
| 2026-05-03 21:01 | 55.00183 | -19.94929 | 40232 ft | 474 kts | 85° |
| 2026-05-03 21:02 | 55.00412 | -19.83454 | 40232 ft | 474 kts | 86° |
| 2026-05-03 21:02 | 55.00572 | -19.71959 | 40227 ft | 474 kts | 86° |
| 2026-05-03 21:03 | 55.00747 | -19.60471 | 40226 ft | 474 kts | 86° |
| 2026-05-03 21:03 | 55.00935 | -19.48976 | 40223 ft | 474 kts | 86° |
| 2026-05-03 21:04 | 55.01119 | -19.37488 | 40225 ft | 474 kts | 86° |
| 2026-05-03 21:04 | 55.01290 | -19.26104 | 40223 ft | 473 kts | 86° |
| 2026-05-03 21:05 | 55.01451 | -19.14642 | 40221 ft | 473 kts | 86° |
| 2026-05-03 21:05 | 55.01600 | -19.03185 | 40222 ft | 473 kts | 86° |
| 2026-05-03 21:06 | 55.01739 | -18.91722 | 40221 ft | 473 kts | 86° |
| 2026-05-03 21:06 | 55.01868 | -18.80256 | 40223 ft | 473 kts | 87° |
| 2026-05-03 21:07 | 55.01985 | -18.68794 | 40218 ft | 473 kts | 87° |
| 2026-05-03 21:07 | 55.02092 | -18.57330 | 40223 ft | 473 kts | 87° |
| 2026-05-03 21:08 | 55.02188 | -18.45857 | 40212 ft | 473 kts | 87° |
| 2026-05-03 21:08 | 55.02273 | -18.34388 | 40209 ft | 473 kts | 87° |
| 2026-05-03 21:09 | 55.02348 | -18.22928 | 40213 ft | 473 kts | 87° |
| 2026-05-03 21:09 | 55.02411 | -18.11463 | 40210 ft | 473 kts | 87° |
| 2026-05-03 21:10 | 55.02464 | -18.00004 | 40208 ft | 473 kts | 88° |
| 2026-05-03 21:10 | 55.02500 | -17.90477 | 40205 ft | 473 kts | 88° |
| 2026-05-03 21:11 | 55.02533 | -17.79011 | 40210 ft | 473 kts | 88° |
| 2026-05-03 21:11 | 55.02556 | -17.67543 | 40203 ft | 473 kts | 88° |
| 2026-05-03 21:12 | 55.02567 | -17.56092 | 40200 ft | 472 kts | 88° |
| 2026-05-03 21:12 | 55.02568 | -17.44650 | 40200 ft | 472 kts | 88° |
| 2026-05-03 21:13 | 55.02557 | -17.33217 | 40198 ft | 472 kts | 88° |
| 2026-05-03 21:13 | 55.02536 | -17.21786 | 40199 ft | 472 kts | 88° |
| 2026-05-03 21:14 | 55.02504 | -17.10355 | 40201 ft | 472 kts | 88° |
| 2026-05-03 21:14 | 55.02460 | -16.98917 | 40195 ft | 472 kts | 88° |
| 2026-05-03 21:15 | 55.02407 | -16.87483 | 40191 ft | 472 kts | 88° |
| 2026-05-03 21:15 | 55.02342 | -16.76043 | 40197 ft | 472 kts | 88° |
| 2026-05-03 21:16 | 55.02267 | -16.64609 | 40192 ft | 472 kts | 89° |
| 2026-05-03 21:16 | 55.02181 | -16.53171 | 40195 ft | 472 kts | 89° |
| 2026-05-03 21:17 | 55.02084 | -16.41729 | 40195 ft | 472 kts | 89° |
| 2026-05-03 21:17 | 55.01977 | -16.30299 | 40189 ft | 472 kts | 89° |
| 2026-05-03 21:18 | 55.01858 | -16.18858 | 40190 ft | 472 kts | 89° |
| 2026-05-03 21:18 | 55.01729 | -16.07423 | 40189 ft | 472 kts | 89° |
| 2026-05-03 21:19 | 55.01590 | -15.95987 | 40192 ft | 472 kts | 89° |
| 2026-05-03 21:19 | 55.01440 | -15.84562 | 40190 ft | 472 kts | 89° |
| 2026-05-03 21:20 | 55.01279 | -15.73138 | 40185 ft | 472 kts | 89° |
| 2026-05-03 21:20 | 55.01108 | -15.61712 | 40185 ft | 472 kts | 89° |
| 2026-05-03 21:21 | 55.00926 | -15.50291 | 40185 ft | 472 kts | 89° |
| 2026-05-03 21:21 | 55.00734 | -15.38863 | 40184 ft | 472 kts | 90° |
| 2026-05-03 21:22 | 55.00532 | -15.27516 | 40183 ft | 472 kts | 90° |
| 2026-05-03 21:22 | 55.00318 | -15.16091 | 40187 ft | 472 kts | 90° |
| 2026-05-03 21:23 | 55.00094 | -15.04673 | 40185 ft | 472 kts | 90° |
| 2026-05-03 21:23 | 54.99962 | -14.93252 | 40187 ft | 471 kts | 88° |
| 2026-05-03 21:24 | 55.00009 | -14.81840 | 40180 ft | 471 kts | 87° |
| 2026-05-03 21:24 | 55.00069 | -14.70429 | 40179 ft | 471 kts | 87° |
| 2026-05-03 21:25 | 55.00099 | -14.59017 | 40180 ft | 471 kts | 88° |
| 2026-05-03 21:25 | 55.00105 | -14.47609 | 40175 ft | 471 kts | 88° |
| 2026-05-03 21:26 | 55.00097 | -14.36190 | 40177 ft | 471 kts | 88° |
| 2026-05-03 21:26 | 55.00078 | -14.24780 | 40177 ft | 471 kts | 88° |
| 2026-05-03 21:27 | 55.00049 | -14.13367 | 40176 ft | 472 kts | 88° |
| 2026-05-03 21:27 | 54.99941 | -14.01933 | 40127 ft | 472 kts | 92° |
| 2026-05-03 21:28 | 54.99509 | -13.96255 | 39687 ft | 473 kts | 97° |
| 2026-05-03 21:28 | 54.98923 | -13.90634 | 39324 ft | 470 kts | 99° |
| 2026-05-03 21:28 | 54.98271 | -13.85067 | 39184 ft | 469 kts | 99° |
| 2026-05-03 21:28 | 54.97588 | -13.79514 | 39168 ft | 470 kts | 99° |
| 2026-05-03 21:29 | 54.96194 | -13.68389 | 39163 ft | 471 kts | 100° |
| 2026-05-03 21:29 | 54.94812 | -13.57318 | 39168 ft | 472 kts | 99° |
| 2026-05-03 21:30 | 54.93425 | -13.46166 | 39165 ft | 472 kts | 99° |
| 2026-05-03 21:30 | 54.92034 | -13.35027 | 39157 ft | 472 kts | 100° |
| 2026-05-03 21:31 | 54.90632 | -13.23890 | 39155 ft | 472 kts | 100° |
| 2026-05-03 21:31 | 54.89218 | -13.12762 | 39157 ft | 472 kts | 100° |
| 2026-05-03 21:32 | 54.87793 | -13.01634 | 39151 ft | 472 kts | 100° |
| 2026-05-03 21:32 | 54.86358 | -12.90516 | 39146 ft | 472 kts | 100° |
| 2026-05-03 21:33 | 54.84911 | -12.79400 | 39146 ft | 472 kts | 100° |
| 2026-05-03 21:33 | 54.83455 | -12.68290 | 39146 ft | 472 kts | 100° |
| 2026-05-03 21:34 | 54.81989 | -12.57195 | 39143 ft | 472 kts | 100° |
| 2026-05-03 21:34 | 54.80514 | -12.46113 | 39143 ft | 472 kts | 101° |
| 2026-05-03 21:35 | 54.79027 | -12.35028 | 39140 ft | 472 kts | 101° |
| 2026-05-03 21:35 | 54.77530 | -12.23949 | 39140 ft | 472 kts | 101° |
| 2026-05-03 21:36 | 54.76023 | -12.12881 | 39140 ft | 472 kts | 101° |
| 2026-05-03 21:36 | 54.74515 | -12.01887 | 39140 ft | 472 kts | 101° |
| 2026-05-03 21:37 | 54.72987 | -11.90828 | 39134 ft | 472 kts | 101° |
| 2026-05-03 21:37 | 54.71438 | -11.79705 | 39132 ft | 472 kts | 101° |
| 2026-05-03 21:38 | 54.69900 | -11.68736 | 39130 ft | 472 kts | 101° |
| 2026-05-03 21:38 | 54.68344 | -11.57719 | 39128 ft | 472 kts | 101° |
| 2026-05-03 21:39 | 54.66779 | -11.46709 | 39124 ft | 472 kts | 101° |
| 2026-05-03 21:39 | 54.65204 | -11.35713 | 39124 ft | 472 kts | 101° |
| 2026-05-03 21:40 | 54.63619 | -11.24723 | 39116 ft | 472 kts | 102° |
| 2026-05-03 21:40 | 54.62025 | -11.13748 | 39116 ft | 472 kts | 102° |
| 2026-05-03 21:41 | 54.60421 | -11.02777 | 39116 ft | 472 kts | 102° |
| 2026-05-03 21:41 | 54.58806 | -10.91814 | 39116 ft | 472 kts | 102° |
| 2026-05-03 21:42 | 54.57182 | -10.80860 | 39123 ft | 472 kts | 102° |
| 2026-05-03 21:42 | 54.55547 | -10.69908 | 39108 ft | 472 kts | 102° |
| 2026-05-03 21:43 | 54.53911 | -10.59021 | 39107 ft | 472 kts | 101° |
| 2026-05-03 21:43 | 54.52256 | -10.48082 | 39100 ft | 471 kts | 102° |
| 2026-05-03 21:44 | 54.50594 | -10.37171 | 39098 ft | 471 kts | 102° |
| 2026-05-03 21:44 | 54.48922 | -10.26269 | 39092 ft | 471 kts | 102° |
| 2026-05-03 21:45 | 54.47240 | -10.15375 | 39095 ft | 472 kts | 102° |
| 2026-05-03 21:45 | 54.45049 | -10.04715 | 39091 ft | 474 kts | 108° |
| 2026-05-03 21:46 | 54.42653 | -9.94142 | 39086 ft | 475 kts | 109° |
| 2026-05-03 21:46 | 54.40229 | -9.83598 | 39081 ft | 475 kts | 109° |
| 2026-05-03 21:47 | 54.37790 | -9.73046 | 39081 ft | 476 kts | 109° |
| 2026-05-03 21:47 | 54.35340 | -9.62502 | 39080 ft | 476 kts | 109° |
| 2026-05-03 21:48 | 54.32882 | -9.51977 | 39072 ft | 476 kts | 110° |
| 2026-05-03 21:48 | 54.30416 | -9.41470 | 39073 ft | 475 kts | 110° |
| 2026-05-03 21:49 | 54.27939 | -9.30968 | 39061 ft | 475 kts | 110° |
| 2026-05-03 21:49 | 54.25455 | -9.20490 | 38761 ft | 474 kts | 110° |
| 2026-05-03 21:50 | 54.24214 | -9.15275 | 38482 ft | 474 kts | 109° |
| 2026-05-03 21:50 | 54.22971 | -9.10063 | 38189 ft | 472 kts | 110° |
| 2026-05-03 21:50 | 54.21735 | -9.04896 | 37792 ft | 468 kts | 109° |
| 2026-05-03 21:50 | 54.20502 | -8.99753 | 37172 ft | 468 kts | 109° |
| 2026-05-03 21:51 | 54.19268 | -8.94616 | 36551 ft | 468 kts | 108° |
| 2026-05-03 21:51 | 54.18031 | -8.89479 | 35906 ft | 467 kts | 108° |
| 2026-05-03 21:51 | 54.16791 | -8.84340 | 35195 ft | 469 kts | 108° |
| 2026-05-03 21:51 | 54.15544 | -8.79185 | 34450 ft | 471 kts | 107° |
| 2026-05-03 21:52 | 54.14294 | -8.74031 | 33781 ft | 469 kts | 106° |
| 2026-05-03 21:52 | 54.13061 | -8.68959 | 32889 ft | 470 kts | 107° |
| 2026-05-03 21:52 | 54.11807 | -8.63804 | 32019 ft | 471 kts | 107° |
| 2026-05-03 21:52 | 54.10548 | -8.58647 | 31199 ft | 471 kts | 107° |
| 2026-05-03 21:53 | 54.09287 | -8.53494 | 30335 ft | 472 kts | 107° |
| 2026-05-03 21:53 | 54.08025 | -8.48351 | 29579 ft | 469 kts | 107° |
| 2026-05-03 21:53 | 54.06772 | -8.43269 | 29037 ft | 461 kts | 107° |
| 2026-05-03 21:53 | 54.05539 | -8.38270 | 28441 ft | 455 kts | 108° |
| 2026-05-03 21:54 | 54.04320 | -8.33342 | 27856 ft | 450 kts | 108° |
| 2026-05-03 21:54 | 54.03112 | -8.28462 | 27279 ft | 444 kts | 108° |
| 2026-05-03 21:54 | 54.01919 | -8.23650 | 26713 ft | 440 kts | 108° |
| 2026-05-03 21:54 | 54.00735 | -8.18889 | 26123 ft | 435 kts | 109° |
| 2026-05-03 21:55 | 53.99559 | -8.14166 | 25561 ft | 431 kts | 109° |
| 2026-05-03 21:55 | 53.98395 | -8.09502 | 25006 ft | 428 kts | 109° |
| 2026-05-03 21:55 | 53.97233 | -8.04857 | 24424 ft | 425 kts | 110° |
| 2026-05-03 21:55 | 53.96077 | -8.00243 | 23826 ft | 424 kts | 110° |
| 2026-05-03 21:56 | 53.94924 | -7.95654 | 23215 ft | 422 kts | 111° |
| 2026-05-03 21:56 | 53.93778 | -7.91101 | 22595 ft | 418 kts | 111° |
| 2026-05-03 21:56 | 53.92640 | -7.86593 | 22042 ft | 414 kts | 111° |
| 2026-05-03 21:56 | 53.91510 | -7.82128 | 21467 ft | 410 kts | 111° |
| 2026-05-03 21:57 | 53.90390 | -7.77707 | 20906 ft | 407 kts | 111° |
| 2026-05-03 21:57 | 53.89277 | -7.73321 | 20352 ft | 403 kts | 111° |
| 2026-05-03 21:57 | 53.88171 | -7.68973 | 19798 ft | 401 kts | 111° |
| 2026-05-03 21:57 | 53.87068 | -7.64642 | 19248 ft | 398 kts | 112° |
| 2026-05-03 21:58 | 53.85973 | -7.60354 | 18689 ft | 396 kts | 112° |
| 2026-05-03 21:58 | 53.84880 | -7.56083 | 18142 ft | 394 kts | 112° |
| 2026-05-03 21:58 | 53.84159 | -7.53269 | 17731 ft | 392 kts | 112° |
| 2026-05-03 21:58 | 53.83078 | -7.49056 | 17193 ft | 388 kts | 112° |
| 2026-05-03 21:59 | 53.82008 | -7.44896 | 16658 ft | 384 kts | 112° |
| 2026-05-03 21:59 | 53.80947 | -7.40776 | 16111 ft | 380 kts | 112° |
| 2026-05-03 21:59 | 53.79894 | -7.36697 | 15584 ft | 377 kts | 112° |
| 2026-05-03 21:59 | 53.78869 | -7.32648 | 15050 ft | 373 kts | 109° |
| 2026-05-03 22:00 | 53.78253 | -7.28443 | 14611 ft | 365 kts | 94° |
| 2026-05-03 22:00 | 53.78280 | -7.24190 | 14118 ft | 361 kts | 85° |
| 2026-05-03 22:00 | 53.78506 | -7.19984 | 13582 ft | 358 kts | 83° |
| 2026-05-03 22:00 | 53.78756 | -7.15813 | 13037 ft | 355 kts | 83° |
| 2026-05-03 22:01 | 53.78999 | -7.11690 | 12536 ft | 351 kts | 83° |
| 2026-05-03 22:01 | 53.79233 | -7.07606 | 12028 ft | 347 kts | 83° |
| 2026-05-03 22:01 | 53.79441 | -7.03566 | 11527 ft | 343 kts | 86° |
| 2026-05-03 22:01 | 53.79302 | -6.99561 | 11032 ft | 340 kts | 99° |
| 2026-05-03 22:02 | 53.78568 | -6.95789 | 10538 ft | 338 kts | 116° |
| 2026-05-03 22:02 | 53.77176 | -6.92644 | 10097 ft | 331 kts | 136° |
| 2026-05-03 22:02 | 53.75318 | -6.90585 | 9746 ft | 310 kts | 152° |
| 2026-05-03 22:02 | 53.73430 | -6.89099 | 9417 ft | 290 kts | 154° |
| 2026-05-03 22:03 | 53.71633 | -6.87772 | 9134 ft | 272 kts | 155° |
| 2026-05-03 22:03 | 53.69945 | -6.86534 | 8804 ft | 259 kts | 154° |
| 2026-05-03 22:03 | 53.68311 | -6.85330 | 8285 ft | 255 kts | 154° |
| 2026-05-03 22:03 | 53.66689 | -6.84129 | 7846 ft | 254 kts | 154° |
| 2026-05-03 22:04 | 53.65073 | -6.82929 | 7537 ft | 254 kts | 154° |
| 2026-05-03 22:04 | 53.63482 | -6.81744 | 7246 ft | 253 kts | 154° |
| 2026-05-03 22:04 | 53.61876 | -6.80549 | 6954 ft | 252 kts | 154° |
| 2026-05-03 22:04 | 53.60278 | -6.79359 | 6662 ft | 251 kts | 154° |
| 2026-05-03 22:05 | 53.58683 | -6.78172 | 6374 ft | 250 kts | 153° |
| 2026-05-03 22:05 | 53.57099 | -6.76993 | 6094 ft | 248 kts | 153° |
| 2026-05-03 22:05 | 53.55522 | -6.75821 | 5811 ft | 247 kts | 153° |
| 2026-05-03 22:05 | 53.53955 | -6.74657 | 5504 ft | 246 kts | 153° |
| 2026-05-03 22:06 | 53.52388 | -6.73494 | 5232 ft | 245 kts | 153° |
| 2026-05-03 22:06 | 53.50834 | -6.72343 | 4966 ft | 244 kts | 153° |
| 2026-05-03 22:06 | 53.49284 | -6.71195 | 4662 ft | 243 kts | 152° |
| 2026-05-03 22:06 | 53.47750 | -6.70034 | 4364 ft | 241 kts | 149° |
| 2026-05-03 22:07 | 53.46547 | -6.68198 | 4075 ft | 231 kts | 119° |
| 2026-05-03 22:07 | 53.45901 | -6.65840 | 4007 ft | 215 kts | 102° |
| 2026-05-03 22:07 | 53.45656 | -6.63451 | 4011 ft | 204 kts | 92° |
| 2026-05-03 22:07 | 53.45539 | -6.61089 | 4015 ft | 203 kts | 92° |
| 2026-05-03 22:08 | 53.45417 | -6.58732 | 3927 ft | 203 kts | 92° |
| 2026-05-03 22:08 | 53.45286 | -6.56380 | 3668 ft | 203 kts | 92° |
| 2026-05-03 22:08 | 53.45153 | -6.54017 | 3391 ft | 203 kts | 92° |
| 2026-05-03 22:08 | 53.45023 | -6.51666 | 3071 ft | 202 kts | 92° |
| 2026-05-03 22:09 | 53.44894 | -6.49339 | 2778 ft | 198 kts | 92° |
| 2026-05-03 22:09 | 53.44770 | -6.47104 | 2515 ft | 186 kts | 93° |
| 2026-05-03 22:09 | 53.44655 | -6.45028 | 2267 ft | 172 kts | 92° |
| 2026-05-03 22:10 | 53.44451 | -6.41349 | 1834 ft | 145 kts | 91° |
| 2026-05-03 22:10 | 53.44363 | -6.39748 | 1634 ft | 135 kts | 92° |
| 2026-05-03 22:10 | 53.44278 | -6.38197 | 1459 ft | 128 kts | 92° |
| 2026-05-03 22:10 | 53.44197 | -6.36743 | 1282 ft | 127 kts | 91° |
| 2026-05-03 22:11 | 53.44116 | -6.35269 | 1107 ft | 127 kts | 91° |
| 2026-05-03 22:11 | 53.44035 | -6.33801 | 935 ft | 126 kts | 92° |
| 2026-05-03 22:11 | 53.43953 | -6.32329 | 742 ft | 127 kts | 92° |
| 2026-05-03 22:11 | 53.43861 | -6.30845 | 567 ft | 128 kts | 91° |
| 2026-05-03 22:12 | 53.43791 | -6.29379 | 389 ft | 125 kts | 90° |
| 2026-05-03 22:12 | 53.43710 | -6.27933 | 251 ft | 124 kts | 91° |
| 2026-05-03 22:12 | 53.43640 | -6.26605 | 215 ft | 92 kts | 96° |
| 2026-05-03 22:12 | 53.43595 | -6.25860 | 220 ft | 42 kts | 94° |
| 2026-05-03 22:13 | 53.43563 | -6.25403 | 220 ft | 37 kts | 103° |
| 2026-05-03 22:13 | 53.43483 | -6.25090 | 221 ft | 21 kts | 120° |
| 2026-05-03 22:13 | 53.43396 | -6.25022 | 223 ft | 12 kts | 224° |
| 2026-05-03 22:13 | 53.43384 | -6.25157 | 221 ft | 12 kts | 272° |
| 2026-05-03 22:14 | 53.43391 | -6.25304 | 223 ft | 13 kts | 276° |
| 2026-05-03 22:14 | 53.43402 | -6.25469 | 218 ft | 15 kts | 277° |
| 2026-05-03 22:14 | 53.43380 | -6.25626 | 223 ft | 14 kts | 211° |
| 2026-05-03 22:14 | 53.43287 | -6.25602 | 224 ft | 14 kts | 156° |
| 2026-05-03 22:15 | 53.43193 | -6.25533 | 222 ft | 16 kts | 156° |
| 2026-05-03 22:15 | 53.43089 | -6.25458 | 222 ft | 17 kts | 157° |
| 2026-05-03 22:15 | 53.42979 | -6.25379 | 223 ft | 18 kts | 155° |
| 2026-05-03 22:15 | 53.42862 | -6.25290 | 223 ft | 19 kts | 155° |
| 2026-05-03 22:16 | 53.42744 | -6.25195 | 223 ft | 17 kts | 142° |
| 2026-05-03 22:16 | 53.42647 | -6.25070 | 225 ft | 18 kts | 153° |
| 2026-05-03 22:16 | 53.42528 | -6.24982 | 221 ft | 19 kts | 157° |
| 2026-05-03 22:16 | 53.42429 | -6.24911 | 225 ft | 9 kts | 156° |
| 2026-05-03 22:17 | 53.42413 | -6.24899 | 215 ft | 0 kts | 156° |
| 2026-05-03 22:17 | 53.42406 | -6.24894 | 220 ft | 4 kts | 156° |
| 2026-05-03 22:17 | 53.42365 | -6.24835 | 224 ft | 11 kts | 117° |
| 2026-05-03 22:17 | 53.42389 | -6.24718 | 220 ft | 11 kts | 54° |
| 2026-05-03 22:18 | 53.42429 | -6.24602 | 220 ft | 12 kts | 71° |
| 2026-05-03 22:18 | 53.42405 | -6.24491 | 221 ft | 5 kts | 132° |
| 2026-05-03 22:18 | 53.42388 | -6.24460 | 225 ft | 0 kts | 133° |